^^
B2 Weather Station Historical Data
Daily Summary for July 14, 2019 Units:  English    Metric   Both
Daily Weekly Monthly Yearly Custom
  High: Low: Average:
Temperature: 93.2 °F 68.3 °F 77.4 °F
Dew Point: 79.3 °F 66.5 °F 72.1 °F
Humidity: 95% 53% 85%
Wind Speed: 25.3mph 0mph 1.9mph
Wind Gust: 13.9mph - -
Wind- - SE
Pressure: 30.08 in 30.01 in -
Precipitation: 0.18 in    
Historical Graphs
 
 
Tabular Data for July 14, 2019
Time Temperature Dew Point Pressure Wind Wind Speed Wind Gust Humidity Rainfall Rate (Hourly) solar
00:04 74 °F 71.2 °F 30.02 in Calm     91% 0 in 0.00 W/m2
00:09 73.9 °F 71.1 °F 30.02 in Calm     91% 0 in 0.00 W/m2
00:14 73.8 °F 71 °F 30.02 in Calm     91% 0 in 0.00 W/m2
00:19 73.6 °F 71.1 °F 30.02 in Calm     92% 0 in 0.00 W/m2
00:24 73.5 °F 71 °F 30.02 in Calm     92% 0 in 0.00 W/m2
00:29 73.4 °F 70.9 °F 30.02 in Calm     92% 0 in 0.00 W/m2
00:34 73.2 °F 70.7 °F 30.02 in Calm     92% 0 in 0.00 W/m2
00:39 73.1 °F 70.6 °F 30.03 in Calm     92% 0 in 0.00 W/m2
00:44 73 °F 70.9 °F 30.02 in Calm     93% 0 in 0.00 W/m2
00:49 73 °F 70.9 °F 30.02 in Calm     93% 0 in 0.00 W/m2
00:54 72.9 °F 70.8 °F 30.02 in Calm     93% 0 in 0.00 W/m2
00:59 72.8 °F 70.7 °F 30.03 in Calm     93% 0 in 0.00 W/m2
01:04 72.7 °F 70.6 °F 30.03 in Calm     93% 0 in 0.00 W/m2
01:09 72.8 °F 70.7 °F 30.02 in Calm     93% 0 in 0.00 W/m2
01:14 72.9 °F 71.1 °F 30.03 in NNE 1.2 mph   94% 0 in 0.00 W/m2
01:19 72.9 °F 71.1 °F 30.02 in Calm     94% 0 in 0.00 W/m2
01:24 72.8 °F 71 °F 30.02 in Calm     94% 0 in 0.00 W/m2
01:29 72.7 °F 70.9 °F 30.02 in Calm     94% 0 in 0.00 W/m2
01:34 72.6 °F 70.8 °F 30.02 in Calm     94% 0 in 0.00 W/m2
01:39 72.4 °F 70.6 °F 30.02 in Calm     94% 0 in 0.00 W/m2
01:44 72.3 °F 70.5 °F 30.02 in NNE 1.2 mph   94% 0 in 0.00 W/m2
01:49 72.1 °F 70.3 °F 30.02 in Calm     94% 0 in 0.00 W/m2
01:54 72 °F 69.9 °F 30.02 in Calm     93% 0 in 0.00 W/m2
01:59 71.9 °F 69.8 °F 30.02 in Calm     93% 0 in 0.00 W/m2
02:04 71.8 °F 69.7 °F 30.02 in Calm     93% 0 in 0.00 W/m2
02:09 71.8 °F 69.7 °F 30.02 in Calm     93% 0 in 0.00 W/m2
02:14 71.8 °F 69.7 °F 30.02 in Calm     93% 0 in 0.00 W/m2
02:19 71.7 °F 69.6 °F 30.03 in Calm     93% 0 in 0.00 W/m2
02:24 71.7 °F 69.6 °F 30.03 in Calm     93% 0 in 0.00 W/m2
02:29 71.6 °F 69.5 °F 30.03 in Calm     93% 0 in 0.00 W/m2
02:34 71.5 °F 69.4 °F 30.03 in Calm     93% 0 in 0.00 W/m2
02:39 71.4 °F 69.3 °F 30.03 in Calm     93% 0 in 0.00 W/m2
02:44 71.3 °F 69.2 °F 30.03 in Calm     93% 0 in 0.00 W/m2
02:49 71.2 °F 69.1 °F 30.03 in Calm     93% 0 in 0.00 W/m2
02:54 71.1 °F 69 °F 30.03 in Calm     93% 0 in 0.00 W/m2
02:59 71 °F 68.9 °F 30.03 in Calm     93% 0 in 0.00 W/m2
03:04 70.9 °F 68.8 °F 30.03 in Calm     93% 0 in 0.00 W/m2
03:09 70.8 °F 68.7 °F 30.02 in Calm     93% 0 in 0.00 W/m2
03:14 70.7 °F 68.6 °F 30.02 in Calm     93% 0 in 0.00 W/m2
03:19 70.6 °F 68.5 °F 30.02 in Calm     93% 0 in 0.00 W/m2
03:24 70.6 °F 68.5 °F 30.02 in Calm     93% 0 in 0.00 W/m2
03:29 70.5 °F 68.4 °F 30.02 in Calm     93% 0 in 0.00 W/m2
03:34 70.5 °F 68.4 °F 30.02 in Calm     93% 0 in 0.00 W/m2
03:39 70.4 °F 68.3 °F 30.02 in Calm     93% 0 in 0.00 W/m2
03:44 70.3 °F 68.2 °F 30.02 in Calm     93% 0 in 0.00 W/m2
03:49 70.1 °F 68 °F 30.02 in Calm     93% 0 in 0.00 W/m2
03:54 70.1 °F 68 °F 30.02 in Calm     93% 0 in 0.00 W/m2
03:59 70.1 °F 68 °F 30.03 in Calm     93% 0 in 0.00 W/m2
04:04 70 °F 67.9 °F 30.03 in Calm     93% 0 in 0.00 W/m2
04:09 69.9 °F 67.8 °F 30.03 in Calm     93% 0 in 0.00 W/m2
04:14 69.8 °F 67.7 °F 30.03 in Calm     93% 0 in 0.00 W/m2
04:19 69.6 °F 67.5 °F 30.03 in Calm     93% 0 in 0.00 W/m2
04:24 69.5 °F 67.4 °F 30.03 in Calm     93% 0 in 0.00 W/m2
04:29 69.4 °F 67.6 °F 30.03 in Calm     94% 0 in 0.00 W/m2
04:34 69.4 °F 67.6 °F 30.04 in Calm     94% 0 in 0.00 W/m2
04:39 69.4 °F 67.6 °F 30.04 in Calm     94% 0 in 0.00 W/m2
04:44 69.4 °F 67.6 °F 30.04 in Calm     94% 0 in 0.00 W/m2
04:49 69.3 °F 67.5 °F 30.04 in Calm     94% 0 in 0.00 W/m2
04:54 69.2 °F 67.4 °F 30.04 in Calm     94% 0 in 0.00 W/m2
04:59 69.1 °F 67.3 °F 30.05 in Calm     94% 0 in 0.00 W/m2
05:04 69 °F 67.2 °F 30.05 in Calm     94% 0 in 0.00 W/m2
05:09 69 °F 67.2 °F 30.05 in Calm     94% 0 in 0.00 W/m2
05:14 68.7 °F 66.9 °F 30.05 in Calm     94% 0 in 0.00 W/m2
05:19 68.6 °F 66.8 °F 30.05 in Calm     94% 0 in 0.00 W/m2
05:24 68.5 °F 66.7 °F 30.05 in Calm     94% 0 in 0.00 W/m2
05:29 68.3 °F 66.5 °F 30.05 in Calm     94% 0 in 0.00 W/m2
05:34 68.5 °F 66.7 °F 30.05 in Calm     94% 0 in 5.00 W/m2
05:39 68.6 °F 66.8 °F 30.06 in Calm     94% 0 in 9.00 W/m2
05:44 68.4 °F 66.6 °F 30.06 in Calm     94% 0 in 11.00 W/m2
05:49 68.5 °F 66.7 °F 30.06 in Calm     94% 0 in 14.00 W/m2
05:54 68.4 °F 66.6 °F 30.06 in Calm     94% 0 in 18.00 W/m2
05:59 68.4 °F 66.6 °F 30.06 in Calm     94% 0 in 21.00 W/m2
06:04 68.5 °F 67 °F 30.06 in Calm     95% 0 in 26.00 W/m2
06:09 68.8 °F 67.3 °F 30.05 in Calm     95% 0 in 32.00 W/m2
06:14 69 °F 67.5 °F 30.05 in Calm     95% 0 in 39.00 W/m2
06:19 69.5 °F 68 °F 30.05 in Calm     95% 0 in 44.00 W/m2
06:24 70 °F 68.5 °F 30.05 in Calm     95% 0 in 53.00 W/m2
06:29 70.5 °F 69 °F 30.05 in Calm     95% 0 in 63.00 W/m2
06:34 71 °F 69.5 °F 30.05 in Calm     95% 0 in 76.00 W/m2
06:39 71.5 °F 70 °F 30.05 in Calm     95% 0 in 90.00 W/m2
06:44 72.1 °F 70.6 °F 30.05 in Calm     95% 0 in 104.00 W/m2
06:49 72.7 °F 70.9 °F 30.05 in ENE 3.5 mph   94% 0 in 120.00 W/m2
06:54 73.3 °F 71.5 °F 30.05 in ENE 3.5 mph   94% 0 in 128.00 W/m2
06:59 73.7 °F 71.9 °F 30.05 in Calm     94% 0 in 144.00 W/m2
07:04 74.2 °F 72 °F 30.05 in Calm     93% 0 in 163.00 W/m2
07:09 74.6 °F 72.1 °F 30.05 in Calm     92% 0 in 179.00 W/m2
07:14 74.8 °F 72 °F 30.05 in Calm     91% 0 in 195.00 W/m2
07:19 75.3 °F 72.5 °F 30.06 in Calm     91% 0 in 207.00 W/m2
07:24 75.9 °F 73.1 °F 30.06 in Calm     91% 0 in 223.00 W/m2
07:29 76.4 °F 73.2 °F 30.06 in Calm     90% 0 in 236.00 W/m2
07:34 76.8 °F 73 °F 30.06 in Calm     88% 0 in 251.00 W/m2
07:39 77.1 °F 73.3 °F 30.06 in Calm     88% 0 in 264.00 W/m2
07:44 77.4 °F 73.2 °F 30.06 in East 3 mph 1.1 mph 87% 0 in 283.00 W/m2
07:49 77.7 °F 73.5 °F 30.06 in Calm     87% 0 in 301.00 W/m2
07:54 78.2 °F 73.7 °F 30.06 in ENE 4.6 mph 2.4 mph 86% 0 in 315.00 W/m2
07:59 78.4 °F 73.5 °F 30.06 in ENE 3.5 mph 2.3 mph 85% 0 in 332.00 W/m2
08:04 78.7 °F 73.5 °F 30.06 in East 3.5 mph   84% 0 in 343.00 W/m2
08:09 79.1 °F 74.2 °F 30.06 in Calm     85% 0 in 353.00 W/m2
08:14 79.5 °F 74.6 °F 30.06 in Calm     85% 0 in 371.00 W/m2
08:19 79.8 °F 74.5 °F 30.06 in SE 3.5 mph 0.6 mph 84% 0 in 392.00 W/m2
08:24 80 °F 74.7 °F 30.07 in East 3.5 mph 1.2 mph 84% 0 in 401.00 W/m2
08:29 80.4 °F 75.1 °F 30.07 in Calm     84% 0 in 394.00 W/m2
08:34 80.7 °F 74.7 °F 30.07 in Calm     82% 0 in 417.00 W/m2
08:39 81.1 °F 74.7 °F 30.07 in ESE 3.5 mph 2.1 mph 81% 0 in 413.00 W/m2
08:44 81.5 °F 75.1 °F 30.07 in ENE 5.8 mph 3.2 mph 81% 0 in 406.00 W/m2
08:49 81.6 °F 75.2 °F 30.07 in ENE 3.5 mph 3.3 mph 81% 0 in 399.00 W/m2
08:54 81.7 °F 74.5 °F 30.07 in ESE 3.5 mph 2.4 mph 79% 0 in 403.00 W/m2
08:59 81.9 °F 74.7 °F 30.07 in East 4.6 mph 2.7 mph 79% 0 in 399.00 W/m2
09:04 82.3 °F 75.5 °F 30.07 in ENE 3.5 mph 3.5 mph 80% 0 in 432.00 W/m2
09:09 82.6 °F 75.8 °F 30.07 in East 5.8 mph 4.3 mph 80% 0 in 459.00 W/m2
09:14 82.8 °F 74.8 °F 30.07 in ENE 4.6 mph 2.3 mph 77% 0 in 492.00 W/m2
09:19 83 °F 75 °F 30.07 in East 3.5 mph 1 mph 77% 0 in 526.00 W/m2
09:24 83 °F 75 °F 30.07 in East 5.8 mph 3.9 mph 77% 0 in 540.00 W/m2
09:29 83.2 °F 75.2 °F 30.07 in East 1.2 mph   77% 0 in 538.00 W/m2
09:34 83.5 °F 75.5 °F 30.07 in East 3.5 mph 2.6 mph 77% 0 in 527.00 W/m2
09:39 84.1 °F 76.5 °F 30.07 in ESE 3.5 mph   78% 0 in 527.00 W/m2
09:44 84.5 °F 76.1 °F 30.07 in East 2 mph 3.3 mph 76% 0 in 522.00 W/m2
09:49 84.7 °F 76.3 °F 30.07 in East 2 mph 0.8 mph 76% 0 in 524.00 W/m2
09:54 85 °F 76.6 °F 30.07 in East 1.2 mph 0.1 mph 76% 0 in 568.00 W/m2
09:59 85.1 °F 75.5 °F 30.07 in ESE 3.5 mph   73% 0 in 371.00 W/m2
10:04 84.9 °F 75.7 °F 30.08 in ESE 4.6 mph 1.9 mph 74% 0 in 301.00 W/m2
10:09 84.6 °F 75.4 °F 30.08 in Calm   0.1 mph 74% 0 in 334.00 W/m2
10:14 84.2 °F 75.8 °F 30.07 in SE 3.5 mph 1.5 mph 76% 0 in 503.00 W/m2
10:19 84.6 °F 76.2 °F 30.07 in North 4 mph 3.6 mph 76% 0 in 687.00 W/m2
10:24 85.2 °F 76.8 °F 30.08 in ESE 5.8 mph 4 mph 76% 0 in 756.00 W/m2
10:29 85.8 °F 77.8 °F 30.08 in Calm     77% 0 in 798.00 W/m2
10:34 86.2 °F 76.1 °F 30.08 in ESE 6.9 mph 1.2 mph 72% 0 in 810.00 W/m2
10:39 86.4 °F 76.7 °F 30.08 in SSE 2.3 mph 1.8 mph 73% 0 in 798.00 W/m2
10:44 86 °F 75.5 °F 30.08 in Calm     71% 0 in 441.00 W/m2
10:49 85.7 °F 76 °F 30.08 in East 3.5 mph 1.5 mph 73% 0 in 710.00 W/m2
10:54 85.9 °F 76.6 °F 30.07 in Calm     74% 0 in 795.00 W/m2
10:59 86.4 °F 77.1 °F 30.07 in ESE 5.8 mph 2.1 mph 74% 0 in 798.00 W/m2
11:04 86.7 °F 77.4 °F 30.07 in ENE 4 mph 0.4 mph 74% 0 in 710.00 W/m2
11:09 86.8 °F 76.3 °F 30.07 in SSE 4.6 mph 1.3 mph 71% 0 in 809.00 W/m2
11:14 86.8 °F 77.1 °F 30.07 in Calm     73% 0 in 802.00 W/m2
11:19 86.9 °F 76.4 °F 30.07 in East 4.6 mph 0.8 mph 71% 0 in 793.00 W/m2
11:24 87.1 °F 77 °F 30.06 in SE 2 mph 1.7 mph 72% 0 in 800.00 W/m2
11:29 87.4 °F 77.3 °F 30.06 in East 5 mph 3 mph 72% 0 in 805.00 W/m2
11:34 87.7 °F 77.5 °F 30.06 in ESE 4 mph 2.1 mph 72% 0 in 812.00 W/m2
11:39 88.1 °F 78.3 °F 30.06 in Calm     73% 0 in 814.00 W/m2
11:44 87.8 °F 76.8 °F 30.06 in Calm     70% 0 in 823.00 W/m2
11:49 88.1 °F 78.3 °F 30.06 in SSE 2 mph 2.4 mph 73% 0 in 830.00 W/m2
11:54 88.7 °F 78.5 °F 30.06 in SSE 6 mph 3 mph 72% 0 in 842.00 W/m2
11:59 89 °F 77.9 °F 30.06 in Calm     70% 0 in 888.00 W/m2
12:04 89.1 °F 78.5 °F 30.06 in Calm     71% 0 in 816.00 W/m2
12:09 89.2 °F 78.1 °F 30.06 in SSE 3.5 mph 0.2 mph 70% 0 in 918.00 W/m2
12:14 89.1 °F 78.5 °F 30.06 in Calm   0.8 mph 71% 0 in 872.00 W/m2
12:19 89.4 °F 78.8 °F 30.06 in SSW 4 mph 2.5 mph 71% 0 in 889.00 W/m2
12:24 89.3 °F 77.3 °F 30.06 in South 4.6 mph 2.6 mph 68% 0 in 909.00 W/m2
12:29 89.5 °F 78 °F 30.05 in SSE 3.5 mph   69% 0 in 947.00 W/m2
12:34 89.6 °F 78.1 °F 30.05 in East 3.5 mph 1.2 mph 69% 0 in 960.00 W/m2
12:39 90 °F 79.3 °F 30.05 in SE 5.8 mph 0.9 mph 71% 0 in 981.00 W/m2
12:44 90 °F 77.1 °F 30.05 in South 4 mph 2.1 mph 66% 0 in 267.00 W/m2
12:49 89.6 °F 76.3 °F 30.05 in West 4 mph 2.5 mph 65% 0 in 993.00 W/m2
12:54 89.8 °F 76.9 °F 30.05 in Calm     66% 0 in 1009.00 W/m2
12:59 90.3 °F 77.8 °F 30.05 in South 5.8 mph 0.3 mph 67% 0 in 962.00 W/m2
13:04 90.7 °F 77.3 °F 30.04 in South 2.3 mph 0.1 mph 65% 0 in 946.00 W/m2
13:09 90.9 °F 76.6 °F 30.04 in SSW 4.6 mph 4.8 mph 63% 0 in 972.00 W/m2
13:14 91.2 °F 78.7 °F 30.04 in SE 4.6 mph 3.3 mph 67% 0 in 933.00 W/m2
13:19 91.5 °F 75.1 °F 30.04 in ESE 3.5 mph   59% 0 in 923.00 W/m2
13:24 91.6 °F 73.7 °F 30.04 in Calm   0.1 mph 56% 0 in 912.00 W/m2
13:29 91.9 °F 75 °F 30.04 in ESE 1.2 mph   58% 0 in 904.00 W/m2
13:34 92 °F 74.1 °F 30.04 in SSE 3.5 mph 1.2 mph 56% 0 in 926.00 W/m2
13:39 92 °F 72.4 °F 30.04 in Calm     53% 0 in 904.00 W/m2
13:44 92.3 °F 73.8 °F 30.04 in Calm     55% 0 in 907.00 W/m2
13:49 92.6 °F 73 °F 30.03 in Calm     53% 0 in 932.00 W/m2
13:54 92.7 °F 73.6 °F 30.03 in WNW 3.5 mph 2.1 mph 54% 0 in 937.00 W/m2
13:59 92.6 °F 73.5 °F 30.03 in NNW 2.3 mph 1.6 mph 54% 0 in 220.00 W/m2
14:04 92.1 °F 72.5 °F 30.03 in WNW 2.3 mph 0.2 mph 53% 0 in 220.00 W/m2
14:09 91.8 °F 73.9 °F 30.03 in Calm   0.6 mph 56% 0 in 255.00 W/m2
14:14 91.5 °F 75.7 °F 30.03 in East 3.5 mph 2 mph 60% 0 in 283.00 W/m2
14:19 91.7 °F 74.8 °F 30.02 in ESE 4.6 mph 2.8 mph 58% 0 in 942.00 W/m2
14:24 92.1 °F 76.2 °F 30.02 in East 2.3 mph   60% 0 in 918.00 W/m2
14:29 92.9 °F 77.5 °F 30.02 in East 4.6 mph 0.6 mph 61% 0 in 958.00 W/m2
14:34 93.2 °F 76.2 °F 30.02 in ENE 2.3 mph 0.5 mph 58% 0 in 278.00 W/m2
14:39 92.9 °F 75.4 °F 30.02 in Calm     57% 0 in 250.00 W/m2
14:44 92.4 °F 77 °F 30.01 in Calm     61% 0 in 977.00 W/m2
14:49 92.1 °F 76.7 °F 30.01 in South 5.8 mph 1.9 mph 61% 0 in 241.00 W/m2
14:54 90.5 °F 75.7 °F 30.02 in South 8.1 mph 1.7 mph 62% 0 in 83.00 W/m2
14:59 88.4 °F 74.2 °F 30.02 in South 10.4 mph 4.3 mph 63% 0 in 51.00 W/m2
15:04 86.8 °F 74.5 °F 30.03 in SSW 7 mph 2.9 mph 67% 0 in 26.00 W/m2
15:09 85.2 °F 72.6 °F 30.04 in SSW 10.4 mph 4.6 mph 66% 0 in 12.00 W/m2
15:14 82.5 °F 69.5 °F 30.03 in SSW 17.3 mph 9.3 mph 65% 0 in 12.00 W/m2
15:19 80.4 °F 69.7 °F 30.03 in SW 20.7 mph 11.9 mph 70% 0 in 11.00 W/m2
15:24 79 °F 69.6 °F 30.05 in SSW 13.8 mph 11.5 mph 73% 0 in 9.00 W/m2
15:29 77.8 °F 70.8 °F 30.06 in East 10.4 mph 8.3 mph 79% 0 in 7.00 W/m2
15:34 74.7 °F 68.1 °F 30.07 in East 25.3 mph 13.9 mph 80% 0.03 in 9.00 W/m2
15:39 73.6 °F 68.8 °F 30.06 in East 9 mph 7.1 mph 85% 0.14 in 11.00 W/m2
15:44 72.7 °F 68.9 °F 30.05 in ESE 11.5 mph 6.4 mph 88% 0.15 in 12.00 W/m2
15:49 72.9 °F 70.1 °F 30.06 in ESE 6.9 mph 5 mph 91% 0.16 in 12.00 W/m2
15:54 72.8 °F 70 °F 30.05 in ESE 5.8 mph 4.1 mph 91% 0.16 in 16.00 W/m2
15:59 73 °F 70.2 °F 30.05 in SE 8.1 mph 3.8 mph 91% 0.16 in 19.00 W/m2
16:04 73.1 °F 70 °F 30.04 in SSE 3.5 mph 0.4 mph 90% 0.16 in 21.00 W/m2
16:09 73.5 °F 70.4 °F 30.05 in South 4 mph 2.7 mph 90% 0.16 in 19.00 W/m2
16:14 73.9 °F 70.5 °F 30.05 in SW 3.5 mph 1.3 mph 89% 0.16 in 16.00 W/m2
16:19 74.4 °F 70.9 °F 30.05 in SW 3.5 mph 2 mph 89% 0.16 in 14.00 W/m2
16:24 74.9 °F 71.4 °F 30.05 in SSW 9.2 mph 4.1 mph 89% 0.16 in 14.00 W/m2
16:29 75 °F 70.9 °F 30.06 in SSW 9.2 mph 7 mph 87% 0.16 in 14.00 W/m2
16:34 75 °F 71.2 °F 30.06 in South 5.8 mph 2.9 mph 88% 0.13 in 14.00 W/m2
16:39 74.7 °F 71.2 °F 30.06 in SSE 8.1 mph 6.1 mph 89% 0.02 in 14.00 W/m2
16:44 74.3 °F 71.2 °F 30.06 in SSE 9.2 mph 7.3 mph 90% 0.01 in 16.00 W/m2
16:49 74 °F 71.2 °F 30.05 in SE 11.5 mph 7 mph 91% 0.01 in 21.00 W/m2
16:54 73.6 °F 70.8 °F 30.06 in SE 8.1 mph 5.6 mph 91% 0.01 in 26.00 W/m2
16:59 73.5 °F 71 °F 30.06 in SSE 6 mph 5.4 mph 92% 0.01 in 37.00 W/m2
17:04 73.6 °F 71.4 °F 30.05 in SSE 5.8 mph 3 mph 93% 0.01 in 49.00 W/m2
17:09 73.7 °F 71.5 °F 30.04 in SSE 4.6 mph 3.6 mph 93% 0.01 in 63.00 W/m2
17:14 73.8 °F 71.6 °F 30.04 in South 4.6 mph 1.8 mph 93% 0.01 in 84.00 W/m2
17:19 73.9 °F 71.7 °F 30.04 in South 4.6 mph 3.3 mph 93% 0.01 in 104.00 W/m2
17:24 74.2 °F 72 °F 30.04 in South 2 mph 1.2 mph 93% 0.01 in 127.00 W/m2
17:29 74.3 °F 71.8 °F 30.04 in South 3.5 mph   92% 0.01 in 146.00 W/m2
17:34 74.8 °F 72.6 °F 30.04 in SE 3.5 mph 2.8 mph 93% 0.01 in 162.00 W/m2
17:39 75.1 °F 72.9 °F 30.03 in Calm     93% 0.01 in 176.00 W/m2
17:44 75.1 °F 72.6 °F 30.02 in SE 3.5 mph 1.1 mph 92% 0.01 in 181.00 W/m2
17:49 75.1 °F 72.6 °F 30.02 in SSE 1 mph 0.6 mph 92% 0 in 244.00 W/m2
17:54 75.3 °F 72.5 °F 30.01 in South 3.5 mph 1.7 mph 91% 0 in 227.00 W/m2
17:59 75.3 °F 72.5 °F 30.02 in Calm     91% 0 in 174.00 W/m2
18:04 75.6 °F 72.8 °F 30.02 in Calm     91% 0 in 274.00 W/m2
18:09 75.9 °F 73.1 °F 30.02 in Calm     91% 0 in 320.00 W/m2
18:14 76.4 °F 73.6 °F 30.02 in Calm     91% 0 in 244.00 W/m2
18:19 76.6 °F 73.4 °F 30.01 in Calm     90% 0 in 265.00 W/m2
18:24 77.1 °F 72.9 °F 30.01 in Calm     87% 0 in 267.00 W/m2
18:29 77.8 °F 73.3 °F 30.01 in Calm     86% 0 in 246.00 W/m2
18:34 78.4 °F 73.2 °F 30.02 in Calm     84% 0 in 241.00 W/m2
18:39 79.1 °F 73.8 °F 30.02 in Calm     84% 0 in 216.00 W/m2
18:44 79.9 °F 73.9 °F 30.02 in Calm     82% 0 in 214.00 W/m2
18:49 80.5 °F 74.5 °F 30.02 in North 4 mph 1 mph 82% 0 in 195.00 W/m2
18:54 80.1 °F 73.7 °F 30.02 in Calm     81% 0.01 in 171.00 W/m2
18:59 79.9 °F 73.9 °F 30.02 in Calm     82% 0.01 in 158.00 W/m2
19:04 80.1 °F 74.5 °F 30.03 in Calm     83% 0.01 in 141.00 W/m2
19:09 80.4 °F 75.5 °F 30.03 in NNE 1.2 mph 1.1 mph 85% 0.01 in 95.00 W/m2
19:14 79.8 °F 74.2 °F 30.03 in Calm     83% 0.01 in 39.00 W/m2
19:19 79 °F 73.4 °F 30.03 in Calm     83% 0.01 in 30.00 W/m2
19:24 78.5 °F 73.6 °F 30.03 in Calm     85% 0.01 in 25.00 W/m2
19:29 77.9 °F 73.4 °F 30.03 in Calm     86% 0.01 in 21.00 W/m2
19:34 77.3 °F 73.1 °F 30.04 in Calm     87% 0.01 in 18.00 W/m2
19:39 77 °F 73.2 °F 30.04 in Calm     88% 0.01 in 14.00 W/m2
19:44 76.7 °F 72.9 °F 30.04 in Calm     88% 0.01 in 12.00 W/m2
19:49 76.4 °F 72.9 °F 30.04 in Calm     89% 0.01 in 11.00 W/m2
19:54 76.1 °F 73 °F 30.04 in Calm     90% 0 in 9.00 W/m2
19:59 75.8 °F 72.7 °F 30.04 in Calm     90% 0 in 9.00 W/m2
20:04 75.4 °F 72.6 °F 30.04 in Calm     91% 0 in 5.00 W/m2
20:09 75.1 °F 72.3 °F 30.04 in Calm     91% 0 in 0.00 W/m2
20:14 74.7 °F 71.9 °F 30.04 in Calm     91% 0 in 0.00 W/m2
20:19 74.3 °F 71.8 °F 30.04 in Calm     92% 0 in 0.00 W/m2
20:24 74 °F 71.5 °F 30.03 in Calm     92% 0 in 0.00 W/m2
20:29 73.8 °F 71.3 °F 30.03 in Calm     92% 0 in 0.00 W/m2
20:34 73.9 °F 71.7 °F 30.04 in Calm     93% 0 in 0.00 W/m2
20:39 74 °F 71.8 °F 30.04 in Calm     93% 0 in 0.00 W/m2
20:44 73.9 °F 71.7 °F 30.03 in Calm     93% 0 in 0.00 W/m2
20:49 73.7 °F 71.5 °F 30.04 in Calm     93% 0 in 0.00 W/m2
20:54 73.5 °F 71.4 °F 30.04 in Calm     93% 0 in 0.00 W/m2
20:59 73.5 °F 71.7 °F 30.04 in Calm     94% 0 in 0.00 W/m2
21:04 73.3 °F 71.5 °F 30.04 in Calm     94% 0 in 0.00 W/m2
21:09 73.5 °F 71.7 °F 30.05 in Calm     94% 0 in 0.00 W/m2
21:14 73.5 °F 71.7 °F 30.05 in Calm     94% 0 in 0.00 W/m2
21:19 73.4 °F 71.6 °F 30.05 in Calm     94% 0 in 0.00 W/m2
21:24 73.3 °F 71.5 °F 30.05 in Calm     94% 0 in 0.00 W/m2
21:29 73.2 °F 71.4 °F 30.05 in Calm     94% 0 in 0.00 W/m2
21:34 73 °F 71.2 °F 30.05 in Calm     94% 0 in 0.00 W/m2
21:39 73 °F 71.2 °F 30.05 in Calm     94% 0 in 0.00 W/m2
21:44 73 °F 71.2 °F 30.05 in Calm     94% 0 in 0.00 W/m2
21:49 73 °F 71.2 °F 30.05 in Calm     94% 0 in 0.00 W/m2
21:54 73.1 °F 71.3 °F 30.05 in Calm     94% 0 in 0.00 W/m2
21:59 73 °F 71.2 °F 30.05 in Calm     94% 0 in 0.00 W/m2
22:04 72.8 °F 71 °F 30.05 in Calm     94% 0 in 0.00 W/m2
22:09 72.6 °F 70.8 °F 30.05 in SSE 3.5 mph 0.1 mph 94% 0 in 0.00 W/m2
22:14 72.4 °F 70.6 °F 30.05 in South 3.5 mph 2.4 mph 94% 0 in 0.00 W/m2
22:19 72.4 °F 70.6 °F 30.04 in South 3 mph 0.6 mph 94% 0 in 0.00 W/m2
22:24 72.3 °F 70.5 °F 30.04 in Calm     94% 0 in 0.00 W/m2
22:29 72.3 °F 70.5 °F 30.04 in Calm     94% 0 in 0.00 W/m2
22:34 72.1 °F 70.3 °F 30.04 in Calm     94% 0 in 0.00 W/m2
22:39 71.8 °F 70 °F 30.03 in Calm     94% 0 in 0.00 W/m2
22:44 71.7 °F 69.9 °F 30.04 in Calm     94% 0 in 0.00 W/m2
22:49 71.6 °F 69.8 °F 30.04 in Calm     94% 0 in 0.00 W/m2
22:54 71.4 °F 69.6 °F 30.04 in Calm     94% 0 in 0.00 W/m2
22:59 71.4 °F 69.6 °F 30.04 in Calm     94% 0 in 0.00 W/m2
23:04 71.3 °F 69.5 °F 30.04 in Calm     94% 0 in 0.00 W/m2
23:09 71.4 °F 69.6 °F 30.04 in Calm     94% 0 in 0.00 W/m2
23:14 71.5 °F 69.7 °F 30.04 in Calm     94% 0 in 0.00 W/m2
23:19 71.6 °F 69.8 °F 30.04 in Calm     94% 0 in 0.00 W/m2
23:24 71.6 °F 69.8 °F 30.04 in Calm     94% 0 in 0.00 W/m2
23:29 71.6 °F 69.8 °F 30.05 in Calm     94% 0 in 0.00 W/m2
23:34 71.6 °F 69.8 °F 30.05 in Calm     94% 0 in 0.00 W/m2
23:39 71.6 °F 69.8 °F 30.05 in Calm     94% 0 in 0.00 W/m2
23:44 71.5 °F 69.7 °F 30.05 in Calm     94% 0 in 0.00 W/m2
23:49 71.6 °F 69.5 °F 30.05 in Calm     93% 0 in 0.00 W/m2
23:54 71.7 °F 69.6 °F 30.05 in SSW 3.5 mph   93% 0 in 0.00 W/m2
23:59 71.9 °F 69.4 °F 30.05 in Calm     92% 0 in 0.00 W/m2
Bourbonnais, Illinois, USA
Compliments of Weather Underground - 4 mb